Time;durP1;ratioP1;P1;durP2;ratioP2;P2;SDS_P1;SDS_P2;PMS_P1;PMS_P2;Temp;Humidity;BMP_temperature;BMP_pressure;BME280_temperature;BME280_humidity;BME280_pressure;Samples;Min_cycle;Max_cycle;Signal;HPM_P1;HPM_P2
2022/02/09 00:01:48;;;;;;;0.68;0.40;;;;;;;5.79;48.88;98707.25;3410071;28;20091;-74
2022/02/09 00:03:31;;;;;;;0.50;0.50;;;;;;;5.79;48.71;98709.88;3413333;28;20047;-73
2022/02/09 00:05:26;;;;;;;1.17;0.50;;;;;;;5.76;48.70;98704.97;3414923;28;20120;-74
2022/02/09 00:07:12;;;;;;;0.50;0.50;;;;;;;5.73;48.46;98708.00;3415576;28;20134;-75
2022/02/09 00:08:53;;;;;;;0.40;0.40;;;;;;;5.71;48.45;98702.09;3416203;28;20102;-74
2022/02/09 00:10:35;;;;;;;0.30;0.30;;;;;;;5.69;48.30;98710.19;3416203;28;20098;-74
2022/02/09 00:12:30;;;;;;;0.30;0.30;;;;;;;5.66;48.41;98701.81;3416249;28;20057;-74
2022/02/09 00:19:30;;;;;;;2.25;0.40;;;;;;;5.65;48.40;98708.94;3429307;28;20414;-74
2022/02/09 00:39:22;;;;;;;2.65;0.50;;;;;;;5.84;48.26;98696.13;3393836;28;20400;-72
2022/02/09 01:56:05;;;;;;;0.52;0.52;;;;;;;5.91;48.42;98710.19;3397079;29;20047;-74
2022/02/09 01:57:47;;;;;;;0.70;0.63;;;;;;;5.92;48.55;98709.19;3387365;29;20055;-73
2022/02/09 01:59:27;;;;;;;0.80;0.60;;;;;;;5.75;48.57;98674.25;3391770;29;20070;-74
2022/02/09 02:01:08;;;;;;;0.40;0.40;;;;;;;5.90;48.46;98695.34;3410064;28;20557;-73
2022/02/09 02:02:49;;;;;;;0.47;0.45;;;;;;;5.75;48.40;98676.06;3414609;28;20050;-74
2022/02/09 02:04:30;;;;;;;0.80;0.70;;;;;;;5.88;48.34;98700.81;3414593;28;20043;-72
2022/02/09 02:06:13;;;;;;;0.88;0.40;;;;;;;5.93;48.47;98712.66;3387231;29;20046;-76
2022/02/09 02:07:57;;;;;;;0.50;0.50;;;;;;;5.88;48.54;98700.00;3396189;29;20122;-75
2022/02/09 02:09:41;;;;;;;0.60;0.60;;;;;;;5.91;48.44;98707.53;3398531;29;20044;-73
2022/02/09 02:11:30;;;;;;;0.60;0.60;;;;;;;5.92;48.46;98713.69;3402424;28;20058;-72
2022/02/09 02:13:35;;;;;;;0.80;0.70;;;;;;;5.84;48.40;98694.28;3414577;28;20613;-73
2022/02/09 02:15:47;;;;;;;0.80;0.55;;;;;;;5.87;48.35;98701.00;3387641;29;20051;-72
2022/02/09 02:19:02;;;;;;;2.22;0.90;;;;;;;5.93;48.48;98705.53;3408624;28;20075;-73
2022/02/09 02:23:04;;;;;;;0.73;0.70;;;;;;;5.96;48.30;98713.13;3368074;29;20056;-73
2022/02/09 02:28:51;;;;;;;0.60;0.55;;;;;;;5.90;48.22;98719.16;3401467;29;20051;-73
2022/02/09 02:31:00;;;;;;;0.60;0.60;;;;;;;5.88;48.20;98719.31;3401303;29;20071;-73
2022/02/09 03:11:21;;;;;;;0.70;0.70;;;;;;;5.61;48.47;98718.25;3414074;28;20085;-73
2022/02/09 03:13:09;;;;;;;1.65;0.80;;;;;;;5.64;48.41;98717.84;3416863;28;20077;-74
2022/02/09 03:15:05;;;;;;;0.80;0.80;;;;;;;5.64;48.49;98719.69;3417009;28;20121;-73
2022/02/09 03:17:24;;;;;;;1.23;0.85;;;;;;;5.63;48.62;98718.06;3409560;28;20193;-73
2022/02/09 03:19:15;;;;;;;1.98;1.10;;;;;;;5.63;48.59;98726.81;3409583;28;20043;-73
2022/02/09 03:22:54;;;;;;;0.90;0.90;;;;;;;5.59;48.59;98722.88;3402527;29;20036;-74
2022/02/09 03:42:45;;;;;;;0.80;0.80;;;;;;;5.52;48.53;98718.53;3389127;29;20147;-74
2022/02/09 03:46:45;;;;;;;1.02;0.80;;;;;;;5.47;48.54;98719.06;3403231;29;20536;-73
2022/02/09 03:48:47;;;;;;;0.90;0.90;;;;;;;5.51;48.67;98722.19;3403128;29;20067;-73
2022/02/09 03:50:49;;;;;;;2.42;1.00;;;;;;;5.51;48.61;98720.34;3403438;28;20444;-72
2022/02/09 03:56:43;;;;;;;1.50;1.38;;;;;;;5.51;48.42;98720.34;3388975;29;20103;-72
2022/02/09 03:58:24;;;;;;;0.70;0.70;;;;;;;5.52;48.63;98724.63;3401318;29;20408;-74
2022/02/09 04:00:06;;;;;;;0.90;0.82;;;;;;;5.51;48.47;98725.66;3403281;29;20049;-73
2022/02/09 04:01:47;;;;;;;0.95;0.85;;;;;;;5.52;48.37;98724.63;3406273;28;20047;-72
2022/02/09 04:03:27;;;;;;;2.15;0.95;;;;;;;5.51;48.30;98725.66;3403033;29;20051;-72
2022/02/09 04:05:08;;;;;;;1.70;1.02;;;;;;;5.50;48.15;98723.16;3403145;29;20050;-72
2022/02/09 04:06:51;;;;;;;1.02;0.93;;;;;;;5.49;48.37;98726.84;3402924;28;20115;-72
2022/02/09 04:08:35;;;;;;;1.85;1.23;;;;;;;5.54;48.33;98727.09;3402993;29;20051;-72
2022/02/09 04:10:24;;;;;;;1.52;1.10;;;;;;;5.55;48.38;98732.22;3403126;29;20138;-73
2022/02/09 04:12:33;;;;;;;1.20;0.73;;;;;;;5.57;48.38;98724.88;3400162;29;20039;-72
2022/02/09 04:17:45;;;;;;;0.90;0.90;;;;;;;5.59;48.23;98722.06;3407483;28;20514;-72
2022/02/09 04:22:20;;;;;;;1.30;0.95;;;;;;;5.60;48.35;98721.91;3416086;28;20050;-73
2022/02/09 04:37:45;;;;;;;1.38;1.00;;;;;;;5.61;48.14;98715.59;3401865;29;20048;-74
2022/02/09 04:39:31;;;;;;;1.42;0.80;;;;;;;5.66;48.06;98730.91;3401876;29;20078;-76
2022/02/09 04:51:27;;;;;;;1.63;1.13;;;;;;;5.65;47.72;98727.44;3402423;28;20066;-76
2022/02/09 04:55:03;;;;;;;0.70;0.68;;;;;;;5.64;47.89;98732.91;3401335;29;20110;-76
2022/02/09 04:56:49;;;;;;;1.95;0.75;;;;;;;5.63;48.11;98733.94;3387022;29;20040;-76
2022/02/09 05:00:40;;;;;;;0.70;0.70;;;;;;;5.61;47.89;98730.63;3401507;29;20075;-75
2022/02/09 05:23:48;;;;;;;1.00;1.00;;;;;;;5.73;47.74;98744.16;3403219;29;20043;-76
2022/02/09 05:27:22;;;;;;;1.08;1.00;;;;;;;5.74;47.74;98735.25;3401928;29;20382;-77
2022/02/09 05:29:03;;;;;;;2.03;1.83;;;;;;;5.74;47.82;98735.25;3401973;29;20126;-75
2022/02/09 05:30:47;;;;;;;1.00;0.90;;;;;;;5.73;47.78;98734.44;3404164;28;20063;-75
2022/02/09 05:32:28;;;;;;;1.23;0.90;;;;;;;5.73;47.65;98744.16;3373800;29;20095;-76
2022/02/09 05:34:09;;;;;;;0.70;0.70;;;;;;;5.73;47.71;98733.59;3395652;28;20070;-78
2022/02/09 05:35:50;;;;;;;2.53;1.20;;;;;;;5.75;47.50;98744.81;3414798;28;20043;-76
2022/02/09 05:37:31;;;;;;;0.95;0.75;;;;;;;5.72;47.53;98742.53;3414813;28;20047;-74
2022/02/09 05:39:12;;;;;;;1.35;0.70;;;;;;;5.66;47.62;98730.91;3412572;28;20129;-75
2022/02/09 05:40:53;;;;;;;1.67;1.25;;;;;;;5.71;47.52;98747.03;3413058;28;20419;-74
2022/02/09 05:42:34;;;;;;;1.42;1.25;;;;;;;5.69;47.67;98741.91;3402288;28;20118;-76
2022/02/09 05:44:15;;;;;;;2.25;1.30;;;;;;;5.69;47.51;98743.75;3401486;29;20468;-75
2022/02/09 05:52:16;;;;;;;3.42;0.98;;;;;;;5.68;47.48;98748.22;3408599;28;20038;-75
2022/02/09 05:53:26;;;;;;;2.00;1.05;;;;;;;5.61;47.51;98733.28;3380705;29;20484;-75
2022/02/09 05:55:24;;;;;;;1.20;0.95;;;;;;;5.71;47.56;98746.22;3401419;29;20618;-76
2022/02/09 05:57:24;;;;;;;1.70;1.00;;;;;;;5.71;47.68;98749.66;3401491;29;20159;-77
2022/02/09 05:59:26;;;;;;;1.08;0.80;;;;;;;5.73;47.54;98749.47;3401227;28;20047;-77
2022/02/09 06:01:06;;;;;;;1.05;0.90;;;;;;;5.73;47.58;98745.03;3402199;28;20059;-76
2022/02/09 06:02:47;;;;;;;4.22;1.10;;;;;;;5.76;47.59;98749.13;3409494;28;20071;-75
2022/02/09 06:04:28;;;;;;;1.60;1.15;;;;;;;5.78;47.45;98752.38;3414945;28;20418;-76
2022/02/09 06:06:09;;;;;;;1.75;0.85;;;;;;;5.76;47.53;98754.41;3413372;28;20153;-77
2022/02/09 06:07:50;;;;;;;2.42;1.10;;;;;;;5.80;47.47;98760.94;3406410;28;20031;-77
2022/02/09 06:09:31;;;;;;;2.90;1.25;;;;;;;5.80;47.63;98759.09;3413840;28;20395;-76
2022/02/09 06:20:26;;;;;;;2.53;1.85;;;;;;;5.93;47.54;98760.25;3389749;29;20047;-76
2022/02/09 06:22:06;;;;;;;2.67;1.08;;;;;;;5.90;47.48;98751.69;3396918;29;20126;-74
2022/02/09 06:23:48;;;;;;;1.92;1.02;;;;;;;5.97;47.58;98765.03;3400046;29;20095;-75
2022/02/09 06:25:30;;;;;;;1.10;1.10;;;;;;;5.99;47.48;98762.16;3388199;29;20044;-76
2022/02/09 06:27:12;;;;;;;1.73;1.63;;;;;;;6.02;47.55;98769.75;3408709;28;20576;-76
2022/02/09 06:28:53;;;;;;;1.90;1.30;;;;;;;6.04;47.54;98773.00;3412019;28;20447;-75
2022/02/09 06:30:36;;;;;;;3.10;1.48;;;;;;;6.05;47.92;98772.84;3397047;29;20039;-75
2022/02/09 06:32:19;;;;;;;1.75;1.65;;;;;;;6.06;47.63;98774.47;3401574;28;20408;-75
2022/02/09 06:33:59;;;;;;;1.92;1.40;;;;;;;6.08;47.62;98779.56;3401612;29;20470;-77
2022/02/09 06:35:40;;;;;;;1.52;1.42;;;;;;;6.09;47.70;98782.03;3401021;29;20039;-75
2022/02/09 06:37:25;;;;;;;2.97;1.30;;;;;;;6.10;47.64;98778.38;3401130;29;20039;-75
2022/02/09 06:39:08;;;;;;;2.63;1.73;;;;;;;6.10;47.44;98786.31;3401326;29;20503;-76
2022/02/09 06:40:53;;;;;;;1.25;1.15;;;;;;;6.07;47.68;98777.94;3401358;29;20102;-75
2022/02/09 06:42:35;;;;;;;2.10;1.48;;;;;;;6.09;47.78;98784.69;3401928;28;20040;-75
2022/02/09 06:44:16;;;;;;;1.30;1.20;;;;;;;6.12;47.75;98786.13;3373901;29;20225;-76
2022/02/09 06:45:57;;;;;;;2.95;1.70;;;;;;;6.14;47.63;98783.28;3399238;28;20479;-77
2022/02/09 06:47:39;;;;;;;2.17;1.52;;;;;;;6.09;47.61;98782.03;3400018;29;20048;-74
2022/02/09 06:49:21;;;;;;;;;;;;;;;6.25;47.64;98780.16;3397870;29;20047;-73
2022/02/09 06:51:09;;;;;;;2.20;1.88;;;;;;;6.17;47.38;98790.84;3408919;28;19915;-74
2022/02/09 06:53:01;;;;;;;5.20;1.52;;;;;;;6.18;47.54;98795.16;3386522;29;20090;-76
2022/02/09 06:54:54;;;;;;;1.60;1.50;;;;;;;6.18;47.55;98785.38;3394425;29;20098;-75
2022/02/09 06:56:44;;;;;;;4.05;2.28;;;;;;;6.18;47.58;98784.56;3386977;29;20040;-77
2022/02/09 07:00:16;;;;;;;2.38;1.70;;;;;;;6.22;47.52;98791.94;3396945;29;20040;-76
2022/02/09 07:02:05;;;;;;;2.40;1.85;;;;;;;6.24;48.00;98799.66;3361397;29;20175;-76
2022/02/09 07:03:46;;;;;;;4.93;2.80;;;;;;;6.27;47.66;98794.00;3394272;29;20063;-75
2022/02/09 07:05:26;;;;;;;3.10;1.98;;;;;;;6.28;47.53;98785.88;3393736;29;20130;-75
2022/02/09 07:07:07;;;;;;;3.80;2.10;;;;;;;6.37;47.56;98794.50;3386841;29;20056;-75
2022/02/09 07:08:48;;;;;;;2.80;1.70;;;;;;;6.43;47.68;98801.69;3394866;29;20130;-75
2022/02/09 07:10:29;;;;;;;1.80;1.67;;;;;;;6.49;47.66;98803.59;3412213;28;20078;-78
2022/02/09 07:12:10;;;;;;;1.77;1.50;;;;;;;6.50;47.48;98791.97;3412215;28;20130;-76
2022/02/09 07:13:51;;;;;;;2.90;1.70;;;;;;;6.54;47.54;98801.19;3413475;28;20039;-73
2022/02/09 07:15:43;;;;;;;5.43;2.00;;;;;;;6.60;47.50;98802.25;3418683;28;20106;-74
2022/02/09 07:17:24;;;;;;;2.33;1.92;;;;;;;6.67;47.14;98804.97;3413982;28;20055;-72
2022/02/09 07:19:08;;;;;;;2.15;1.95;;;;;;;6.71;47.25;98803.56;3418606;28;20031;-74
2022/02/09 07:22:35;;;;;;;3.58;2.10;;;;;;;6.82;47.17;98808.34;3412937;28;20049;-73
2022/02/09 07:24:19;;;;;;;2.10;1.55;;;;;;;6.86;47.14;98806.94;3423775;28;20089;-74
2022/02/09 07:26:08;;;;;;;2.95;2.03;;;;;;;6.92;46.95;98808.00;3425913;28;20043;-73
2022/02/09 07:27:53;;;;;;;2.38;2.00;;;;;;;7.00;47.23;98813.16;3414070;28;20046;-74
2022/02/09 07:29:34;;;;;;;1.98;1.55;;;;;;;7.04;46.93;98810.94;3413771;28;20047;-74
2022/02/09 07:31:15;;;;;;;2.38;1.80;;;;;;;7.11;46.81;98809.16;3418592;28;20072;-73
2022/02/09 07:33:01;;;;;;;3.55;1.80;;;;;;;7.35;46.75;98813.97;3413004;28;20058;-75
2022/02/09 07:34:42;;;;;;;1.55;1.45;;;;;;;7.49;46.54;98803.47;3405809;28;20414;-73
2022/02/09 07:36:24;;;;;;;2.63;1.73;;;;;;;7.58;46.32;98807.56;3413167;28;20093;-73
2022/02/09 07:38:05;;;;;;;2.30;1.90;;;;;;;7.73;46.10;98807.44;3406373;28;20047;-75
2022/02/09 07:39:45;;;;;;;3.05;2.10;;;;;;;7.94;45.77;98814.47;3405891;28;20217;-73
2022/02/09 07:41:26;;;;;;;3.30;2.47;;;;;;;8.07;45.62;98809.19;3417026;28;20067;-74
2022/02/09 07:43:13;;;;;;;1.48;1.38;;;;;;;8.56;45.16;98809.91;3411109;28;20131;-74
2022/02/09 07:45:27;;;;;;;3.33;2.40;;;;;;;8.97;44.82;98806.25;3412737;28;20488;-74
2022/02/09 07:47:32;;;;;;;2.67;2.28;;;;;;;9.87;43.93;98814.41;3407788;28;20051;-73
2022/02/09 07:49:49;;;;;;;2.50;1.85;;;;;;;10.66;43.31;98815.78;3404827;28;20103;-73
2022/02/09 07:54:50;;;;;;;4.70;1.80;;;;;;;12.52;41.51;98820.94;3402994;29;20435;-75
2022/02/09 07:56:33;;;;;;;4.32;1.85;;;;;;;13.13;40.90;98819.75;3410969;28;20094;-73
2022/02/09 07:58:14;;;;;;;3.38;2.10;;;;;;;13.76;40.29;98826.25;3416337;28;20054;-79
2022/02/09 07:59:55;;;;;;;2.20;1.85;;;;;;;14.15;39.95;98816.56;3416933;28;20418;-72
2022/02/09 08:01:37;;;;;;;2.08;1.80;;;;;;;14.58;39.42;98814.41;3416640;28;20143;-74
2022/02/09 08:03:20;;;;;;;3.17;2.45;;;;;;;14.91;38.47;98813.63;3416786;28;20047;-74
2022/02/09 08:05:01;;;;;;;2.65;2.03;;;;;;;14.94;38.52;98820.38;3416257;28;20039;-76
2022/02/09 08:06:47;;;;;;;2.58;1.70;;;;;;;15.29;37.97;98821.97;3402442;29;20048;-77
2022/02/09 08:08:31;;;;;;;2.40;2.05;;;;;;;15.59;37.64;98813.50;3406793;28;20043;-74
2022/02/09 08:10:21;;;;;;;2.47;2.00;;;;;;;15.92;37.06;98802.66;3416446;28;20050;-71
2022/02/09 08:12:29;;;;;;;2.45;2.00;;;;;;;16.46;37.06;98822.59;3415679;28;20130;-72
2022/02/09 08:28:17;;;;;;;3.67;1.80;;;;;;;18.60;34.52;98814.91;3364990;29;20059;-72
2022/02/09 08:33:23;;;;;;;3.95;1.83;;;;;;;20.19;32.26;98811.91;3400323;29;20048;-72
2022/02/09 08:35:04;;;;;;;2.83;1.90;;;;;;;20.68;31.73;98813.78;3399294;29;20522;-72
2022/02/09 08:36:45;;;;;;;2.78;1.70;;;;;;;21.13;31.18;98817.97;3376160;29;20667;-75
2022/02/09 08:38:29;;;;;;;4.87;1.80;;;;;;;21.53;30.71;98804.34;3401130;28;20199;-71
2022/02/09 08:40:13;;;;;;;2.72;1.70;;;;;;;21.91;30.36;98812.56;3416291;28;20039;-73
2022/02/09 08:41:54;;;;;;;4.07;1.73;;;;;;;22.25;29.76;98803.44;3416550;28;20450;-73
2022/02/09 08:43:35;;;;;;;1.83;1.50;;;;;;;22.64;29.34;98803.16;3416320;28;20051;-72
2022/02/09 08:45:18;;;;;;;1.80;1.60;;;;;;;23.02;28.94;98806.59;3416464;28;20109;-72
2022/02/09 08:46:59;;;;;;;4.45;1.65;;;;;;;23.36;28.35;98799.22;3388842;29;20040;-71
2022/02/09 08:48:39;;;;;;;2.20;1.57;;;;;;;23.76;27.89;98813.97;3391008;29;20069;-73
2022/02/09 08:50:21;;;;;;;1.70;1.17;;;;;;;24.15;27.09;98812.63;3399376;29;20043;-74
2022/02/09 08:52:02;;;;;;;3.38;1.45;;;;;;;24.43;26.59;98815.28;3413535;28;20047;-70
2022/02/09 08:53:43;;;;;;;3.05;1.67;;;;;;;24.67;26.57;98804.91;3416101;28;20063;-72
2022/02/09 08:55:24;;;;;;;1.80;1.70;;;;;;;24.93;26.25;98802.34;3400673;29;20553;-73
2022/02/09 08:57:11;;;;;;;1.95;1.55;;;;;;;25.21;26.16;98805.75;3391781;29;20072;-71
2022/02/09 08:58:51;;;;;;;2.45;1.63;;;;;;;25.47;25.55;98813.25;3407874;29;20129;-73
2022/02/09 09:00:36;;;;;;;4.45;1.70;;;;;;;25.63;25.75;98811.72;3404838;28;20506;-73
2022/02/09 09:02:20;;;;;;;4.07;1.90;;;;;;;25.64;25.05;98807.88;3425662;28;20042;-72
2022/02/09 09:04:12;;;;;;;2.75;1.75;;;;;;;25.43;25.13;98823.22;3412198;28;20058;-73
2022/02/09 09:05:57;;;;;;;2.08;1.38;;;;;;;25.10;25.40;98818.03;3396712;29;20040;-75
2022/02/09 09:07:39;;;;;;;1.45;1.20;;;;;;;24.66;24.86;98818.84;3388858;29;20040;-74
2022/02/09 09:09:27;;;;;;;;;;;;;;;24.56;26.13;98828.06;3400463;29;20036;-73
2022/02/09 09:11:28;;;;;;;2.88;1.50;;;;;;;23.86;25.70;98808.31;3388584;29;19978;-73
2022/02/09 10:03:24;;;;;;;2.10;1.45;;;;;;;27.38;21.46;98799.72;3385267;29;20040;-75
2022/02/09 10:05:34;;;;;;;3.20;1.50;;;;;;;27.08;21.40;98795.28;3406801;28;20517;-74
2022/02/09 10:34:13;;;;;;;1.55;1.20;;;;;;;25.14;21.89;98791.72;3377953;29;20180;-73
2022/02/09 10:36:14;;;;;;;2.03;1.23;;;;;;;25.05;22.14;98790.88;3403745;28;20043;-71
2022/02/09 10:37:59;;;;;;;3.38;1.52;;;;;;;24.60;21.95;98788.19;3407612;28;20078;-73
2022/02/09 10:39:47;;;;;;;3.63;1.48;;;;;;;24.47;22.27;98795.28;3394192;29;20087;-72
2022/02/09 10:41:35;;;;;;;2.70;2.00;;;;;;;24.55;22.36;98796.47;3414123;28;20053;-70
2022/02/09 10:43:36;;;;;;;2.92;1.70;;;;;;;24.70;22.21;98800.75;3407175;28;20532;-72
2022/02/09 10:45:33;;;;;;;1.83;1.52;;;;;;;24.49;21.98;98797.72;3404400;28;20032;-73
2022/02/09 10:47:23;;;;;;;2.08;1.30;;;;;;;24.21;22.22;98791.53;3401755;28;20040;-73
2022/02/09 10:49:09;;;;;;;1.77;1.67;;;;;;;23.77;22.69;98788.38;3407014;29;20035;-70
2022/02/09 10:50:50;;;;;;;4.30;2.10;;;;;;;23.36;23.19;98791.84;3409137;28;20039;-71
2022/02/09 10:52:46;;;;;;;2.93;1.90;;;;;;;23.03;23.30;98781.06;3419990;28;20046;-71
2022/02/09 10:54:31;;;;;;;2.20;1.98;;;;;;;22.68;23.14;98778.91;3407787;28;20051;-72
2022/02/09 10:56:12;;;;;;;2.25;1.95;;;;;;;22.32;23.63;98774.03;3408993;28;20099;-72
2022/02/09 10:57:53;;;;;;;3.92;1.85;;;;;;;22.03;23.93;98780.38;3386555;29;20040;-74
2022/02/09 10:59:40;;;;;;;2.10;1.60;;;;;;;21.74;24.17;98784.00;3398163;28;20051;-72
2022/02/09 11:01:20;;;;;;;3.00;1.88;;;;;;;21.43;24.33;98780.06;3404581;28;20044;-73
2022/02/09 11:03:01;;;;;;;4.87;1.90;;;;;;;21.17;24.53;98783.00;3404240;28;20040;-73
2022/02/09 11:04:42;;;;;;;4.00;2.63;;;;;;;20.88;24.54;98781.09;3412165;28;20223;-74
2022/02/09 11:06:28;;;;;;;3.55;2.10;;;;;;;20.58;24.76;98790.28;3411261;28;20302;-72
2022/02/09 11:08:09;;;;;;;2.63;1.98;;;;;;;20.25;25.10;98783.72;3416452;28;20053;-72
2022/02/09 11:09:50;;;;;;;2.50;2.03;;;;;;;20.02;25.27;98793.31;3427240;28;20433;-72
2022/02/09 11:11:31;;;;;;;3.40;2.03;;;;;;;19.92;25.64;98788.75;3428488;28;20130;-73
2022/02/09 11:13:12;;;;;;;;;;;;;;;20.18;25.43;98791.31;3419352;28;20047;-71
2022/02/09 11:14:53;;;;;;;2.25;1.90;;;;;;;19.98;25.25;98790.38;3410946;28;19923;-73
2022/02/09 11:16:34;;;;;;;2.23;1.90;;;;;;;19.99;25.40;98789.28;3411633;28;20502;-73
2022/02/09 11:18:21;;;;;;;2.03;1.70;;;;;;;20.07;25.24;98800.59;3429939;28;20089;-73
2022/02/09 11:20:02;;;;;;;3.00;1.55;;;;;;;20.01;25.29;98789.81;3414543;28;20071;-73
2022/02/09 11:21:49;;;;;;;1.80;1.40;;;;;;;19.99;25.22;98781.16;3408796;29;20039;-74
2022/02/09 11:23:50;;;;;;;2.00;1.70;;;;;;;20.07;25.42;98784.38;3410517;28;20050;-75
2022/02/09 11:25:42;;;;;;;1.40;1.27;;;;;;;20.03;25.51;98773.28;3411201;28;20047;-73
2022/02/09 11:27:33;;;;;;;3.10;1.70;;;;;;;20.14;25.52;98784.88;3409855;28;20050;-71
2022/02/09 11:31:19;;;;;;;2.13;1.33;;;;;;;19.70;25.62;98777.53;3415082;28;20065;-71
2022/02/09 11:33:20;;;;;;;2.13;1.55;;;;;;;19.44;25.75;98777.59;3399669;29;20067;-72
2022/02/09 11:37:01;;;;;;;2.63;1.85;;;;;;;19.14;26.19;98781.97;3377932;29;20560;-72
2022/02/09 11:38:50;;;;;;;2.95;1.70;;;;;;;18.93;26.82;98789.28;3407211;28;20043;-71
2022/02/09 11:42:27;;;;;;;2.30;1.90;;;;;;;18.36;27.31;98792.22;3413687;28;20040;-71
2022/02/09 11:45:08;;;;;;;2.70;1.58;;;;;;;18.02;27.51;98784.59;3409955;28;20101;-71
2022/02/09 12:09:09;;;;;;;2.65;1.80;;;;;;;15.56;30.21;98798.69;3416569;28;20050;-75
2022/02/09 12:11:25;;;;;;;2.35;1.92;;;;;;;15.37;30.55;98805.44;3426667;28;20094;-74
2022/02/09 12:13:04;;;;;;;2.55;1.70;;;;;;;15.30;30.97;98812.84;3408466;28;20043;-74
2022/02/09 12:15:11;;;;;;;3.08;1.95;;;;;;;15.19;30.86;98815.38;3413540;29;20043;-72
2022/02/09 12:19:03;;;;;;;2.92;1.75;;;;;;;14.92;31.22;98803.69;3406073;28;20047;-73
2022/02/09 12:20:48;;;;;;;2.45;1.88;;;;;;;14.69;31.22;98808.19;3392468;28;20169;-74
2022/02/09 12:23:35;;;;;;;2.65;1.67;;;;;;;14.55;31.69;98809.53;3412479;28;20036;-73
2022/02/09 12:24:46;;;;;;;3.58;1.88;;;;;;;14.38;31.66;98809.50;3383131;28;20047;-74
2022/02/09 12:26:26;;;;;;;4.18;1.77;;;;;;;14.24;31.88;98813.50;3410648;28;20042;-73
2022/02/09 12:28:13;;;;;;;3.28;1.95;;;;;;;14.10;32.07;98813.00;3401897;29;20519;-72
2022/02/09 12:30:04;;;;;;;5.05;2.25;;;;;;;13.94;32.25;98812.69;3412319;28;20054;-74
2022/02/09 12:31:45;;;;;;;4.93;2.63;;;;;;;13.80;32.28;98816.69;3427334;28;20090;-75
2022/02/09 12:33:27;;;;;;;3.15;2.22;;;;;;;13.68;32.66;98813.22;3427747;28;20732;-74
2022/02/09 12:35:10;;;;;;;4.03;2.20;;;;;;;13.54;32.78;98815.34;3428097;28;20038;-72
2022/02/09 12:36:55;;;;;;;3.13;2.50;;;;;;;13.41;32.89;98811.06;3427798;28;20046;-74
2022/02/09 12:38:36;;;;;;;4.40;1.90;;;;;;;13.31;33.21;98808.16;3418226;28;20070;-72
2022/02/09 12:40:19;;;;;;;3.63;1.90;;;;;;;13.19;33.39;98815.34;3414308;28;20038;-73
2022/02/09 12:42:04;;;;;;;2.58;1.90;;;;;;;13.04;33.79;98800.56;3411855;28;20383;-73
2022/02/09 12:44:01;;;;;;;4.57;2.08;;;;;;;13.04;34.12;98810.47;3405554;28;20530;-72
2022/02/09 12:45:41;;;;;;;2.80;1.98;;;;;;;12.93;33.87;98812.06;3411391;28;20070;-73
2022/02/09 12:47:31;;;;;;;3.63;1.67;;;;;;;12.91;34.07;98822.19;3414927;28;20044;-73
2022/02/09 12:49:13;;;;;;;4.45;2.53;;;;;;;12.81;34.13;98822.75;3405317;28;20099;-73
2022/02/09 12:50:56;;;;;;;4.63;2.20;;;;;;;12.74;34.10;98821.25;3415663;28;20035;-73
2022/02/09 12:52:39;;;;;;;2.30;2.10;;;;;;;12.66;34.40;98809.81;3411803;28;20046;-73
2022/02/09 12:54:20;;;;;;;2.42;1.80;;;;;;;12.59;34.49;98817.13;3415198;28;20032;-73
2022/02/09 12:56:01;;;;;;;3.72;2.25;;;;;;;12.50;34.61;98815.84;3395225;28;20067;-75
2022/02/09 12:57:53;;;;;;;2.60;2.10;;;;;;;12.46;34.89;98833.38;3394104;29;20126;-74
2022/02/09 12:59:35;;;;;;;5.82;3.72;;;;;;;12.37;34.93;98829.41;3410157;28;20172;-72
2022/02/09 13:01:16;;;;;;;3.15;2.33;;;;;;;12.31;35.12;98838.31;3397389;29;20040;-75
2022/02/09 13:03:00;;;;;;;3.60;2.57;;;;;;;12.22;35.54;98843.97;3412557;28;20451;-73
2022/02/09 13:04:42;;;;;;;5.25;2.97;;;;;;;12.11;35.75;98839.41;3414845;28;20403;-72
2022/02/09 13:06:23;;;;;;;3.63;2.67;;;;;;;12.02;35.85;98840.75;3415356;28;20047;-72
2022/02/09 13:08:04;;;;;;;3.03;2.45;;;;;;;11.91;36.09;98842.31;3411806;28;20130;-74
2022/02/09 13:09:49;;;;;;;3.60;2.20;;;;;;;11.83;36.44;98852.47;3402675;29;20051;-73
2022/02/09 13:11:33;;;;;;;4.03;2.85;;;;;;;11.78;37.06;98845.13;3402034;29;20039;-73
2022/02/09 13:13:20;;;;;;;3.78;2.55;;;;;;;11.70;37.24;98854.25;3389233;29;20071;-73
2022/02/09 13:15:16;;;;;;;4.60;2.35;;;;;;;11.63;37.54;98848.16;3412776;28;20071;-74
2022/02/09 13:19:03;;;;;;;5.60;2.75;;;;;;;11.47;38.18;98846.06;3414316;28;20054;-74
2022/02/09 14:14:49;;;;;;;5.35;3.58;;;;;;;9.50;40.58;98828.25;3374209;29;20484;-75
2022/02/09 14:16:30;;;;;;;3.85;2.90;;;;;;;9.46;40.69;98827.03;3383623;29;20480;-80
2022/02/09 14:52:56;;;;;;;4.25;2.80;;;;;;;8.92;42.87;98857.34;3414518;29;20133;-76
2022/02/09 14:54:46;;;;;;;3.55;2.97;;;;;;;8.89;43.01;98857.75;3387424;29;20040;-74
2022/02/09 14:58:27;;;;;;;4.63;2.67;;;;;;;8.87;42.91;98855.31;3413729;28;20094;-75
2022/02/09 15:00:14;;;;;;;4.82;2.60;;;;;;;8.83;43.04;98848.78;3412169;28;20031;-76
2022/02/09 15:01:59;;;;;;;4.07;2.63;;;;;;;8.76;43.11;98847.13;3413735;29;20062;-74
2022/02/09 15:09:19;;;;;;;4.63;2.72;;;;;;;8.55;43.42;98843.63;3386600;29;20044;-76
2022/02/09 15:11:12;;;;;;;7.15;3.60;;;;;;;8.52;43.73;98841.41;3399815;29;20076;-75
2022/02/09 15:14:48;;;;;;;3.45;2.58;;;;;;;8.58;43.79;98861.81;3415520;29;20047;-75
2022/02/09 15:22:04;;;;;;;4.43;3.00;;;;;;;8.52;44.18;98865.28;3414696;29;20082;-76
2022/02/09 15:23:50;;;;;;;5.60;3.70;;;;;;;8.52;44.02;98865.28;3414205;29;20058;-74
2022/02/09 15:25:33;;;;;;;4.93;3.25;;;;;;;8.49;44.27;98865.66;3414203;29;20109;-73
2022/02/09 15:27:18;;;;;;;4.38;3.83;;;;;;;8.48;44.45;98872.00;3400937;29;20049;-76
2022/02/09 15:29:00;;;;;;;3.97;3.30;;;;;;;8.47;44.63;98876.50;3400571;29;20091;-76
2022/02/09 15:30:54;;;;;;;10.38;3.60;;;;;;;8.46;44.48;98879.34;3398273;29;20051;-76
2022/02/09 15:32:39;;;;;;;4.95;2.67;;;;;;;8.42;44.68;98870.16;3399827;29;20040;-74
2022/02/09 15:34:30;;;;;;;7.00;3.38;;;;;;;8.42;44.93;98886.09;3412248;28;20130;-76
2022/02/09 15:36:14;;;;;;;3.78;2.55;;;;;;;8.40;44.93;98880.97;3427353;28;20111;-74
2022/02/09 15:38:08;;;;;;;5.25;2.83;;;;;;;8.38;45.08;98890.13;3410517;28;20043;-74
2022/02/09 15:39:53;;;;;;;7.63;3.33;;;;;;;8.37;45.18;98885.84;3419787;28;20565;-76
2022/02/09 15:41:45;;;;;;;3.95;3.50;;;;;;;8.37;45.33;98885.84;3404640;29;20090;-77
2022/02/09 15:59:12;;;;;;;4.90;3.05;;;;;;;8.20;46.02;98896.81;3392812;29;20068;-77
2022/02/09 16:09:15;;;;;;;6.47;3.80;;;;;;;8.05;46.04;98891.66;3350124;29;20068;-73
2022/02/09 16:24:45;;;;;;;5.90;4.20;;;;;;;7.88;46.49;98887.72;3352970;29;20090;-76
2022/02/09 16:46:14;;;;;;;4.95;3.25;;;;;;;7.92;48.31;98882.81;3343259;29;20517;-75
2022/02/09 16:49:49;;;;;;;4.32;3.13;;;;;;;7.91;48.45;98886.50;3336278;29;20045;-79
2022/02/09 16:51:40;;;;;;;3.88;3.25;;;;;;;7.93;48.66;98889.78;3348157;29;20049;-77
2022/02/09 16:53:44;;;;;;;5.75;3.60;;;;;;;7.92;48.48;98888.94;3361136;29;20061;-74
2022/02/09 17:19:12;;;;;;;8.75;3.92;;;;;;;7.50;48.73;98884.63;3414992;29;20133;-76
2022/02/09 17:20:53;;;;;;;7.15;4.45;;;;;;;7.51;48.83;98883.59;3414700;29;20051;-74
2022/02/09 17:22:33;;;;;;;11.02;4.60;;;;;;;7.52;48.97;98890.56;3415208;29;20336;-78
2022/02/09 17:24:17;;;;;;;8.63;4.35;;;;;;;7.52;48.93;98887.91;3401053;29;20479;-75
2022/02/09 17:25:57;;;;;;;7.70;4.50;;;;;;;7.51;49.12;98891.56;3398861;29;20598;-75
2022/02/09 17:27:43;;;;;;;9.43;4.40;;;;;;;7.48;49.02;98881.34;3398901;29;20067;-73
2022/02/09 17:29:47;;;;;;;8.02;4.20;;;;;;;7.49;48.93;98888.31;3413451;29;20601;-74
2022/02/09 17:31:40;;;;;;;7.07;4.00;;;;;;;7.46;48.77;98888.69;3415402;29;20544;-72
2022/02/09 17:35:29;;;;;;;7.25;4.85;;;;;;;7.43;48.46;98884.59;3415175;29;20514;-75
2022/02/09 17:39:07;;;;;;;6.25;4.13;;;;;;;7.37;48.54;98880.06;3412674;29;20041;-76
2022/02/09 17:56:49;;;;;;;7.93;4.13;;;;;;;7.39;48.46;98892.13;3414708;28;20047;-73
2022/02/09 17:58:58;;;;;;;5.07;4.18;;;;;;;7.32;48.38;98883.28;3413998;28;20039;-72
2022/02/09 18:00:35;;;;;;;6.95;4.20;;;;;;;7.38;48.56;98897.59;3406985;29;20082;-76
2022/02/09 18:02:16;;;;;;;6.20;4.05;;;;;;;7.37;48.51;98899.44;3415392;29;20752;-78
2022/02/09 18:03:57;;;;;;;6.28;3.60;;;;;;;7.36;48.39;98897.00;3400657;29;20062;-73
2022/02/09 18:05:45;;;;;;;6.03;3.80;;;;;;;7.36;48.73;98895.16;3412102;28;20049;-74
2022/02/09 18:07:29;;;;;;;3.70;3.00;;;;;;;7.34;48.97;98899.81;3415584;28;20102;-76
2022/02/09 18:09:15;;;;;;;7.10;3.15;;;;;;;7.31;49.03;98891.44;3418378;28;20050;-74